Time;durP1;ratioP1;P1;durP2;ratioP2;P2;SDS_P1;SDS_P2;PMS_P1;PMS_P2;Temp;Humidity;BMP_temperature;BMP_pressure;BME280_temperature;BME280_humidity;BME280_pressure;Samples;Min_cycle;Max_cycle;Signal;HPM_P1;HPM_P2
2021/12/09 00:00:44;;;;;;;7.15;2.50;;;3.00;99.90;;;1.11;98.25;99879.28;2566930;30;138133;-38
2021/12/09 00:03:13;;;;;;;7.60;3.00;;;3.00;99.90;;;1.09;98.38;99872.44;2568213;30;137513;-38
2021/12/09 00:05:45;;;;;;;7.15;2.95;;;2.90;99.90;;;1.06;98.62;99873.59;2567360;30;137693;-38
2021/12/09 00:08:13;;;;;;;6.28;2.83;;;2.90;99.90;;;1.02;98.69;99872.28;2567738;30;136985;-37
2021/12/09 00:10:42;;;;;;;7.07;2.95;;;2.90;99.90;;;0.99;98.86;99873.44;2566777;30;138894;-38
2021/12/09 00:13:09;;;;;;;8.02;3.20;;;2.90;99.90;;;0.99;98.62;99878.81;2567059;30;138384;-38
2021/12/09 00:15:37;;;;;;;9.30;2.50;;;2.80;99.90;;;0.97;98.80;99875.47;2567440;30;137268;-38
2021/12/09 00:18:05;;;;;;;10.25;2.85;;;2.80;99.90;;;1.03;98.82;99873.09;2567413;30;137325;-38
2021/12/09 00:20:32;;;;;;;5.80;2.70;;;2.80;99.90;;;1.06;99.28;99875.44;2565330;30;138357;-38
2021/12/09 00:23:00;;;;;;;7.15;2.55;;;2.90;99.90;;;1.06;99.48;99872.75;2569027;30;137387;-38
2021/12/09 00:25:28;;;;;;;7.22;2.33;;;2.90;99.90;;;0.97;99.25;99864.72;2567001;30;138310;-38
2021/12/09 00:27:55;;;;;;;5.30;2.90;;;2.90;99.90;;;1.04;99.40;99877.47;2569640;30;137476;-38
2021/12/09 00:30:23;;;;;;;8.68;2.47;;;2.80;99.90;;;0.97;99.40;99872.78;2569091;30;137294;-38
2021/12/09 00:32:51;;;;;;;6.55;2.67;;;2.80;99.90;;;0.96;99.72;99875.66;2567800;30;138460;-38
2021/12/09 00:35:19;;;;;;;;;;;2.80;99.90;;;0.90;99.56;99873.66;2567429;30;138243;-38
2021/12/09 00:37:57;;;;;;;7.95;2.80;;;2.80;99.90;;;0.85;99.75;99871.50;2567974;30;137766;-38
2021/12/09 00:40:25;;;;;;;6.88;2.60;;;2.70;99.90;;;0.84;100.00;99869.81;2567079;30;139229;-38
2021/12/09 00:42:52;;;;;;;10.50;3.10;;;2.70;99.90;;;0.84;100.00;99873.34;2566481;30;138289;-38
2021/12/09 00:45:22;;;;;;;6.65;3.47;;;2.70;99.90;;;0.93;100.00;99881.34;2568898;30;136613;-38
2021/12/09 00:47:51;;;;;;;8.20;3.17;;;2.70;99.90;;;1.03;100.00;99868.59;2567997;30;137462;-38
2021/12/09 00:50:20;;;;;;;10.18;3.45;;;2.80;99.90;;;1.14;100.00;99875.44;2568002;30;137949;-38
2021/12/09 00:52:48;;;;;;;9.63;3.60;;;2.90;99.90;;;1.20;100.00;99877.41;2568340;30;137421;-38
2021/12/09 00:55:17;;;;;;;8.13;2.97;;;3.00;99.90;;;1.26;100.00;99878.56;2567846;30;138338;-38
2021/12/09 00:57:45;;;;;;;9.30;3.10;;;3.00;99.90;;;1.29;100.00;99870.97;2568876;30;137609;-37
2021/12/09 01:00:21;;;;;;;7.63;3.15;;;3.10;99.90;;;1.38;100.00;99873.66;2568565;30;138470;-38
2021/12/09 01:02:50;;;;;;;7.05;2.80;;;3.10;99.90;;;1.42;100.00;99877.66;2567688;30;136981;-38
2021/12/09 01:05:17;;;;;;;8.75;2.90;;;3.20;99.90;;;1.42;100.00;99877.66;2567426;30;138277;-38
2021/12/09 01:07:45;;;;;;;6.82;2.78;;;3.20;99.90;;;1.38;100.00;99877.16;2567585;30;136902;-38
2021/12/09 01:10:20;;;;;;;9.70;3.38;;;3.20;99.90;;;1.34;100.00;99877.72;2566066;30;138162;-38
2021/12/09 01:12:47;;;;;;;8.45;2.70;;;3.20;99.90;;;1.41;99.79;99878.66;2567108;30;137724;-38
2021/12/09 01:15:18;;;;;;;6.07;2.88;;;3.20;99.90;;;1.36;99.32;99879.19;2566952;30;139102;-38
2021/12/09 01:17:47;;;;;;;7.03;2.78;;;3.20;99.90;;;1.25;99.24;99875.03;2568006;30;137324;-38
2021/12/09 01:20:24;;;;;;;7.22;2.60;;;3.10;99.90;;;1.21;99.02;99880.94;2568102;30;139052;-38
2021/12/09 01:22:58;;;;;;;7.70;2.67;;;3.10;99.90;;;1.10;99.45;99874.09;2567914;30;137636;-38
2021/12/09 01:25:27;;;;;;;8.20;2.40;;;3.00;99.90;;;1.05;99.28;99880.00;2567371;30;137286;-38
2021/12/09 01:27:57;;;;;;;5.80;2.58;;;2.90;99.90;;;0.98;99.39;99884.38;2567728;30;138112;-38
2021/12/09 01:30:25;;;;;;;4.70;2.30;;;2.90;99.90;;;0.98;99.35;99892.44;2567346;30;137417;-38
2021/12/09 01:32:55;;;;;;;6.85;2.55;;;2.80;99.90;;;0.91;99.49;99899.50;2566342;30;137996;-38
2021/12/09 01:35:31;;;;;;;5.35;2.22;;;2.80;99.90;;;0.85;100.00;99898.34;2567588;30;136797;-38
2021/12/09 01:38:03;;;;;;;5.32;2.22;;;2.70;99.90;;;0.83;100.00;99903.06;2567557;30;137490;-38
2021/12/09 01:40:30;;;;;;;7.40;2.88;;;2.70;99.90;;;0.78;100.00;99908.09;2567891;30;138339;-38
2021/12/09 01:42:58;;;;;;;7.28;2.38;;;2.60;99.90;;;0.76;100.00;99902.91;2567915;30;136818;-38
2021/12/09 01:45:27;;;;;;;6.15;2.47;;;2.60;99.90;;;0.79;100.00;99907.94;2567791;30;139050;-38
2021/12/09 01:47:55;;;;;;;12.00;2.78;;;2.60;99.90;;;0.76;100.00;99908.28;2567961;30;136907;-38
2021/12/09 01:50:25;;;;;;;6.93;2.70;;;2.60;99.90;;;0.74;100.00;99906.75;2566897;30;138163;-37
2021/12/09 01:52:53;;;;;;;6.97;2.70;;;2.60;99.90;;;0.67;100.00;99907.44;2567323;30;137503;-38
2021/12/09 01:55:22;;;;;;;6.55;2.13;;;2.60;99.90;;;0.65;100.00;99909.47;2567080;30;137077;-38
2021/12/09 01:57:53;;;;;;;8.70;3.00;;;2.60;99.90;;;0.62;100.00;99920.53;2568182;30;137547;-38
2021/12/09 02:00:26;;;;;;;6.00;2.47;;;2.50;99.90;;;0.56;100.00;99914.00;2567458;30;137500;-38
2021/12/09 02:02:54;;;;;;;9.27;2.58;;;2.50;99.90;;;0.49;100.00;99910.31;2567612;30;136736;-37
2021/12/09 02:05:27;;;;;;;5.47;2.10;;;2.40;99.90;;;0.45;100.00;99917.03;2567296;30;136640;-38
2021/12/09 02:07:55;;;;;;;5.70;2.53;;;2.40;99.90;;;0.44;100.00;99918.03;2567895;30;136929;-38
2021/12/09 02:10:24;;;;;;;;;;;2.30;99.90;;;0.42;100.00;99920.88;2568870;30;138208;-38
2021/12/09 02:12:53;;;;;;;6.15;2.25;;;2.30;99.90;;;0.42;100.00;99926.25;2566715;30;136589;-38
2021/12/09 02:15:22;;;;;;;5.10;2.28;;;2.30;99.90;;;0.40;100.00;99922.91;2567939;30;137458;-38
2021/12/09 02:17:50;;;;;;;10.27;2.55;;;2.30;99.90;;;0.41;100.00;99921.06;2567641;30;137302;-38
2021/12/09 02:20:19;;;;;;;8.43;2.50;;;2.30;99.90;;;0.39;100.00;99920.38;2566401;30;137893;-37
2021/12/09 02:22:48;;;;;;;11.38;3.47;;;2.20;99.90;;;0.36;100.00;99920.72;2567504;30;137540;-38
2021/12/09 02:25:17;;;;;;;7.18;2.58;;;2.20;99.90;;;0.35;100.00;99919.03;2567493;30;138341;-38
2021/12/09 02:27:46;;;;;;;8.35;2.53;;;2.20;99.90;;;0.32;100.00;99919.38;2567569;30;137487;-38
2021/12/09 02:30:15;;;;;;;7.38;3.03;;;2.20;99.90;;;0.25;100.00;99909.31;2564726;30;138579;-38
2021/12/09 02:32:44;;;;;;;5.75;2.13;;;2.20;99.90;;;0.26;100.00;99915.50;2567475;30;138235;-38
2021/12/09 02:35:13;;;;;;;6.13;2.55;;;2.10;99.90;;;0.23;100.00;99916.69;2566917;30;138230;-38
2021/12/09 02:37:41;;;;;;;4.75;2.42;;;2.10;99.90;;;0.17;100.00;99911.16;2567888;30;137431;-38
2021/12/09 02:40:11;;;;;;;9.07;2.83;;;2.10;99.90;;;0.14;100.00;99915.03;2565805;30;138219;-38
2021/12/09 02:42:39;;;;;;;6.10;2.22;;;2.10;99.90;;;0.07;100.00;99912.16;2568035;30;136993;-38
2021/12/09 02:45:10;;;;;;;8.68;2.50;;;2.00;99.90;;;0.06;100.00;99909.63;2567562;30;138191;-38
2021/12/09 02:47:39;;;;;;;5.70;2.35;;;2.00;99.90;;;0.01;100.00;99904.78;2565244;30;137797;-38
2021/12/09 02:50:08;;;;;;;7.35;2.53;;;1.90;99.90;;;-0.01;100.00;99909.44;2566689;30;137284;-37
2021/12/09 02:52:36;;;;;;;7.45;2.70;;;1.90;99.90;;;-0.01;100.00;99904.09;2568477;30;137285;-38
2021/12/09 02:55:05;;;;;;;6.47;2.67;;;1.90;99.90;;;0.00;100.00;99908.47;2567043;30;138262;-38
2021/12/09 02:57:32;;;;;;;7.18;3.20;;;1.90;99.90;;;-0.04;100.00;99899.06;2568641;30;137532;-38
2021/12/09 03:00:00;;;;;;;4.65;2.30;;;1.90;99.90;;;-0.07;100.00;99902.94;2567553;30;137494;-38
2021/12/09 03:02:27;;;;;;;8.45;2.50;;;1.90;99.90;;;-0.11;100.00;99898.06;2568136;30;136850;-37
2021/12/09 03:04:59;;;;;;;9.50;2.67;;;1.80;99.90;;;-0.11;100.00;99908.78;2567862;30;137358;-37
2021/12/09 03:07:36;;;;;;;6.03;2.53;;;1.80;99.90;;;-0.12;100.00;99907.09;2569179;30;136795;-38
2021/12/09 03:10:25;;;;;;;8.40;2.72;;;1.80;99.90;;;-0.18;100.00;99912.13;2568076;30;137388;-38
2021/12/09 03:13:00;;;;;;;8.00;2.83;;;1.80;99.90;;;-0.21;100.00;99909.78;2566659;30;137513;-38
2021/12/09 03:15:29;;;;;;;7.10;2.63;;;1.70;99.90;;;-0.25;100.00;99911.13;2566907;30;139367;-37
2021/12/09 03:17:56;;;;;;;8.38;2.70;;;1.70;99.90;;;-0.26;100.00;99911.25;2568228;30;136852;-38
2021/12/09 03:20:24;;;;;;;6.20;2.33;;;1.70;99.90;;;-0.30;100.00;99911.59;2566184;30;138399;-38
2021/12/09 03:22:51;;;;;;;5.60;2.63;;;1.60;99.90;;;-0.32;100.00;99902.03;2569036;30;137466;-37
2021/12/09 03:25:21;;;;;;;8.52;2.80;;;1.60;99.90;;;-0.33;100.00;99900.34;2566968;30;138839;-38
2021/12/09 03:27:50;;;;;;;8.48;3.13;;;1.60;99.90;;;-0.40;100.00;99899.34;2575115;30;137479;-40
2021/12/09 03:30:20;;;;;;;6.72;2.67;;;1.60;99.90;;;-0.50;100.00;99888.75;2567135;30;138745;-40
2021/12/09 03:32:48;;;;;;;6.28;2.83;;;1.50;99.90;;;-0.46;100.00;99901.69;2568634;30;137445;-40
2021/12/09 03:35:16;;;;;;;11.50;2.97;;;1.50;99.90;;;-0.48;100.00;99905.50;2568446;30;136940;-40
2021/12/09 03:37:46;;;;;;;6.18;2.72;;;1.50;99.90;;;-0.50;100.00;99904.84;2567951;30;136819;-40
2021/12/09 03:40:14;;;;;;;9.02;2.72;;;1.40;99.90;;;-0.52;100.00;99904.16;2568001;30;138283;-40
2021/12/09 03:42:43;;;;;;;8.57;3.10;;;1.40;99.90;;;-0.53;100.00;99905.16;2568332;30;137565;-40
2021/12/09 03:45:11;;;;;;;7.82;2.78;;;1.40;99.90;;;-0.53;100.00;99908.69;2567751;30;137782;-40
2021/12/09 03:47:40;;;;;;;6.53;2.72;;;1.40;99.90;;;-0.57;100.00;99901.97;2567836;30;137345;-40
2021/12/09 03:50:12;;;;;;;8.43;2.83;;;1.40;99.90;;;-0.58;100.00;99905.63;2568270;30;138506;-40
2021/12/09 03:52:40;;;;;;;7.32;2.90;;;1.40;99.90;;;-0.59;100.00;99914.69;2568859;30;137690;-40
2021/12/09 03:55:09;;;;;;;7.25;3.00;;;1.30;99.90;;;-0.61;100.00;99922.03;2566461;30;138251;-40
2021/12/09 03:57:36;;;;;;;8.98;3.05;;;1.30;99.90;;;-0.67;100.00;99920.00;2568588;30;137497;-40
2021/12/09 04:00:08;;;;;;;8.10;2.80;;;1.30;99.90;;;-0.71;100.00;99914.13;2568921;30;139106;-40
2021/12/09 04:02:37;;;;;;;8.05;3.00;;;1.20;99.90;;;-0.77;100.00;99907.59;2565888;30;137634;-40
2021/12/09 04:05:07;;;;;;;10.73;3.10;;;1.20;99.90;;;-0.76;100.00;99908.41;2566027;30;138405;-40
2021/12/09 04:07:34;;;;;;;11.70;3.25;;;1.20;99.90;;;-0.78;100.00;99902.38;2568513;30;137413;-40
2021/12/09 04:10:05;;;;;;;8.05;2.80;;;1.20;99.90;;;-0.80;100.00;99902.53;2567588;30;138100;-40
2021/12/09 04:12:32;;;;;;;8.00;3.35;;;1.10;99.90;;;-0.83;100.00;99904.72;2566588;30;137812;-40
2021/12/09 04:15:01;;;;;;;8.55;3.17;;;1.10;99.90;;;-0.88;100.00;99897.16;2566527;30;137418;-39
2021/12/09 04:17:28;;;;;;;8.57;3.00;;;1.10;99.90;;;-0.82;100.00;99911.75;2565620;30;137918;-39
2021/12/09 04:19:56;;;;;;;9.90;3.58;;;1.10;99.90;;;-0.88;100.00;99907.88;2568729;30;138212;-40
2021/12/09 04:22:24;;;;;;;7.72;3.22;;;1.10;99.90;;;-0.81;100.00;99919.59;2567735;30;137297;-40
2021/12/09 04:24:53;;;;;;;7.03;3.15;;;1.10;99.90;;;-0.79;100.00;99922.13;2568149;30;138199;-40
2021/12/09 04:27:23;;;;;;;7.05;3.47;;;1.10;99.90;;;-0.79;100.00;99906.06;2566067;30;136783;-40
2021/12/09 04:29:50;;;;;;;7.30;3.42;;;1.20;99.90;;;-0.78;100.00;99919.31;2568056;30;138293;-40
2021/12/09 04:32:19;;;;;;;9.13;3.70;;;1.10;99.90;;;-0.83;100.00;99918.94;2567581;30;138310;-40
2021/12/09 04:34:46;;;;;;;8.68;3.03;;;1.10;99.90;;;-0.80;100.00;99923.97;2568275;30;139118;-39
2021/12/09 04:37:14;;;;;;;8.07;3.55;;;1.10;99.90;;;-0.80;100.00;99928.50;2568170;30;138223;-40
2021/12/09 04:39:42;;;;;;;6.85;3.05;;;1.10;99.90;;;-0.80;100.00;99936.53;2568255;30;138407;-40
2021/12/09 04:42:09;;;;;;;7.70;3.30;;;1.10;99.90;;;-0.82;100.00;99931.31;2567262;30;138119;-40
2021/12/09 04:44:37;;;;;;;10.85;3.65;;;1.10;99.90;;;-0.82;100.00;99942.03;2568210;30;138440;-40
2021/12/09 04:47:05;;;;;;;9.00;3.70;;;1.10;99.90;;;-0.83;100.00;99937.69;2567440;30;137627;-40
2021/12/09 04:49:33;;;;;;;9.70;3.80;;;1.10;99.90;;;-0.84;100.00;99944.03;2568614;30;138488;-40
2021/12/09 04:52:01;;;;;;;10.57;3.30;;;1.10;99.90;;;-0.88;100.00;99948.91;2568617;30;137387;-40
2021/12/09 04:54:28;;;;;;;;;;;1.10;99.90;;;-0.92;100.00;99950.22;2567262;30;138184;-40
2021/12/09 04:56:56;;;;;;;7.18;3.30;;;1.10;99.90;;;-1.00;100.00;99950.16;2569648;30;137630;-40
2021/12/09 04:59:23;;;;;;;9.30;3.42;;;1.00;99.90;;;-1.06;100.00;99950.78;2567928;30;138225;-40
2021/12/09 05:01:51;;;;;;;9.05;3.10;;;0.90;99.90;;;-1.11;100.00;99953.94;2568446;30;137330;-40
2021/12/09 05:04:19;;;;;;;7.22;3.28;;;0.90;99.90;;;-1.06;100.00;99951.63;2565584;30;138770;-39
2021/12/09 05:06:46;;;;;;;7.07;3.80;;;0.90;99.90;;;-1.10;100.00;99952.94;2567836;30;138060;-40
2021/12/09 05:09:18;;;;;;;10.30;3.92;;;0.80;99.90;;;-1.09;100.00;99956.47;2566680;30;138095;-40
2021/12/09 05:14:20;;;;;;;11.35;4.00;;;0.80;99.90;;;-1.20;100.00;99958.38;2567976;30;138198;-39
2021/12/09 05:16:55;;;;;;;12.95;4.10;;;0.80;99.90;;;-1.17;100.00;99973.31;2568363;30;137314;-40
2021/12/09 05:19:24;;;;;;;7.95;3.90;;;0.80;99.90;;;-1.14;100.00;99969.47;2567657;30;138364;-40
2021/12/09 05:21:54;;;;;;;12.93;3.97;;;0.80;99.90;;;-1.24;100.00;99966.91;2566914;30;136790;-40
2021/12/09 05:24:21;;;;;;;8.75;3.85;;;0.80;99.90;;;-1.20;100.00;99987.00;2567765;30;138565;-40
2021/12/09 05:26:53;;;;;;;7.78;3.15;;;0.70;99.90;;;-1.19;100.00;99986.88;2567933;30;137456;-40
2021/12/09 05:29:27;;;;;;;13.95;3.53;;;0.70;99.90;;;-1.19;100.00;99981.50;2568139;30;138839;-40
2021/12/09 05:32:11;;;;;;;9.52;3.53;;;0.70;99.90;;;-1.21;100.00;99978.13;2566175;30;138602;-40
2021/12/09 05:34:46;;;;;;;7.10;3.70;;;0.70;99.90;;;-1.17;100.00;99982.19;2567984;30;138243;-39
2021/12/09 05:37:25;;;;;;;10.20;4.10;;;0.80;99.90;;;-1.11;100.00;99994.09;2568003;30;138064;-40
2021/12/09 05:39:56;;;;;;;;;;;0.80;99.90;;;-1.12;100.00;99987.06;2568849;30;137260;-40
2021/12/09 05:42:26;;;;;;;8.95;3.35;;;0.80;99.90;;;-1.17;100.00;100000.06;2568133;30;137996;-40
2021/12/09 05:44:56;;;;;;;;;;;0.80;99.90;;;-1.16;100.00;99999.94;2567268;30;138317;-40
2021/12/09 05:47:25;;;;;;;7.65;3.05;;;0.80;99.90;;;-1.11;100.00;99999.44;2569203;30;137218;-40
2021/12/09 05:49:53;;;;;;;9.93;3.67;;;0.80;99.90;;;-1.12;100.00;100013.00;2567637;30;139219;-40
2021/12/09 05:52:20;;;;;;;;;;;0.80;99.90;;;-1.07;100.00;100005.34;2568219;30;138304;-40
2021/12/09 05:54:48;;;;;;;10.68;3.35;;;0.80;99.90;;;-1.08;100.00;100020.53;2565879;30;138465;-40
2021/12/09 05:57:16;;;;;;;8.10;3.15;;;0.80;99.90;;;-1.11;100.00;100015.50;2567510;30;138322;-40
2021/12/09 05:59:44;;;;;;;11.30;3.95;;;0.80;99.90;;;-1.09;100.00;100018.03;2566326;30;137012;-40
2021/12/09 06:02:18;;;;;;;10.27;3.63;;;0.80;99.90;;;-1.18;100.00;100004.59;2566462;30;137531;-40
2021/12/09 06:04:46;;;;;;;12.27;4.18;;;0.80;99.90;;;-1.19;100.00;100007.44;2567032;30;138151;-40
2021/12/09 06:07:14;;;;;;;9.88;3.85;;;0.80;99.90;;;-1.21;100.00;100004.88;2566903;30;138309;-40
2021/12/09 06:09:42;;;;;;;9.85;4.00;;;0.80;99.90;;;-1.17;100.00;100010.78;2567167;30;138422;-40
2021/12/09 06:12:10;;;;;;;9.40;3.90;;;0.80;99.90;;;-1.15;100.00;100008.78;2566972;30;137508;-40
2021/12/09 06:14:39;;;;;;;7.78;3.10;;;0.70;99.90;;;-1.09;100.00;100001.97;2567649;30;138282;-39
2021/12/09 06:17:07;;;;;;;9.02;3.53;;;0.80;99.90;;;-1.11;100.00;100018.19;2565521;30;138213;-39
2021/12/09 06:19:35;;;;;;;7.72;3.55;;;0.80;99.90;;;-1.12;100.00;100018.34;2567370;30;138327;-40
2021/12/09 06:22:03;;;;;;;10.05;3.70;;;0.80;99.90;;;-1.13;100.00;100003.28;2569225;30;137698;-40
2021/12/09 06:24:31;;;;;;;10.27;3.40;;;0.80;99.90;;;-1.10;100.00;100008.34;2567603;30;137668;-40
2021/12/09 06:26:59;;;;;;;9.55;3.70;;;0.80;99.90;;;-1.09;100.00;100013.50;2567166;30;137385;-40
2021/12/09 06:29:27;;;;;;;9.98;4.47;;;0.80;99.90;;;-1.02;100.00;100006.56;2566142;30;139555;-40
2021/12/09 06:31:54;;;;;;;;;;;0.90;99.90;;;-1.00;100.00;100008.22;2569429;30;137417;-40
2021/12/09 06:34:22;;;;;;;9.57;3.80;;;0.90;99.90;;;-1.05;100.00;100016.72;2567512;30;138282;-39
2021/12/09 06:36:50;;;;;;;7.20;3.38;;;0.90;99.90;;;-1.06;100.00;100015.91;2568364;30;137518;-39
2021/12/09 06:39:17;;;;;;;6.88;3.70;;;0.90;99.90;;;-1.14;100.00;100017.69;2568994;30;137469;-40
2021/12/09 06:41:45;;;;;;;12.52;3.85;;;0.90;99.90;;;-1.09;100.00;100018.88;2568881;30;137189;-40
2021/12/09 06:44:13;;;;;;;;;;;0.90;99.90;;;-1.11;100.00;100025.41;2568129;30;138161;-40
2021/12/09 06:46:41;;;;;;;8.20;3.42;;;0.80;99.90;;;-1.14;100.00;100023.03;2567283;30;136893;-40
2021/12/09 06:49:08;;;;;;;6.40;3.40;;;0.80;99.90;;;-1.18;100.00;100028.69;2569030;30;137379;-39
2021/12/09 06:51:36;;;;;;;12.32;3.58;;;0.80;99.90;;;-1.16;100.00;100028.53;2566799;30;136962;-40
2021/12/09 06:54:04;;;;;;;10.15;3.60;;;0.80;99.90;;;-1.10;100.00;100032.44;2567917;30;136875;-40
2021/12/09 06:56:32;;;;;;;9.82;3.63;;;0.80;99.90;;;-1.16;100.00;100032.06;2568033;30;137467;-40
2021/12/09 06:59:01;;;;;;;10.10;4.25;;;0.80;99.90;;;-1.18;100.00;100027.84;2567784;30;138309;-40
2021/12/09 07:01:37;;;;;;;9.50;3.55;;;0.80;99.90;;;-1.19;100.00;100032.38;2567494;30;137592;-40
2021/12/09 07:04:08;;;;;;;6.70;3.50;;;0.80;99.90;;;-1.18;100.00;100030.53;2569580;30;139308;-40
2021/12/09 07:06:37;;;;;;;7.68;3.60;;;0.80;99.90;;;-1.19;100.00;100028.84;2566298;30;138651;-40
2021/12/09 07:09:06;;;;;;;8.70;3.78;;;0.80;99.90;;;-1.18;100.00;100030.53;2568038;30;139079;-40
2021/12/09 07:11:39;;;;;;;10.95;3.70;;;0.80;99.90;;;-1.19;100.00;100027.03;2568476;30;138574;-40
2021/12/09 07:14:07;;;;;;;9.40;3.95;;;0.80;99.90;;;-1.21;100.00;100022.81;2568547;30;139154;-40
2021/12/09 07:16:35;;;;;;;9.02;3.78;;;0.70;99.90;;;-1.25;100.00;100021.44;2566681;30;137992;-40
2021/12/09 07:19:03;;;;;;;13.15;4.00;;;0.70;99.90;;;-1.28;100.00;100019.06;2567961;30;139007;-40
2021/12/09 07:21:30;;;;;;;6.32;3.33;;;0.70;99.90;;;-1.31;100.00;100020.22;2567000;30;137387;-40
2021/12/09 07:23:58;;;;;;;13.02;4.45;;;0.70;99.90;;;-1.34;100.00;100021.34;2568410;30;138299;-40
2021/12/09 07:26:26;;;;;;;9.32;4.28;;;0.60;99.90;;;-1.38;100.00;100027.19;2568205;30;137543;-40
2021/12/09 07:28:53;;;;;;;8.18;3.70;;;0.60;99.90;;;-1.39;100.00;100025.50;2566787;30;138984;-40
2021/12/09 07:31:23;;;;;;;9.88;3.70;;;0.60;99.90;;;-1.42;100.00;100034.66;2568721;30;137358;-40
2021/12/09 07:33:52;;;;;;;9.77;4.18;;;0.50;99.90;;;-1.45;100.00;100033.16;2567167;30;137293;-40
2021/12/09 07:36:20;;;;;;;11.05;4.38;;;0.50;99.90;;;-1.47;100.00;100042.31;2567770;30;137603;-40
2021/12/09 07:38:47;;;;;;;;;;;0.50;99.90;;;-1.48;100.00;100041.47;2568532;30;136870;-40
2021/12/09 07:41:16;;;;;;;9.23;3.72;;;0.50;99.90;;;-1.44;100.00;100036.66;2566000;30;136927;-40
2021/12/09 07:43:45;;;;;;;9.82;4.00;;;0.50;99.90;;;-1.39;100.00;100038.88;2568552;30;139181;-40
2021/12/09 07:46:12;;;;;;;9.45;4.43;;;0.50;99.90;;;-1.40;100.00;100040.72;2567653;30;137430;-40
2021/12/09 07:48:40;;;;;;;10.82;4.55;;;0.60;99.90;;;-1.39;100.00;100038.88;2567563;30;137892;-39
2021/12/09 07:51:08;;;;;;;8.68;4.20;;;0.50;99.90;;;-1.39;100.00;100045.06;2568567;30;137577;-40
2021/12/09 07:53:35;;;;;;;9.73;4.18;;;0.60;99.90;;;-1.39;100.00;100039.72;2568313;30;138421;-40
2021/12/09 07:56:03;;;;;;;8.18;4.35;;;0.50;99.90;;;-1.37;100.00;100042.25;2567679;30;138311;-40
2021/12/09 07:58:35;;;;;;;12.13;4.65;;;0.50;99.90;;;-1.36;100.00;100038.56;2568089;30;138160;-40
2021/12/09 08:01:04;;;;;;;11.98;4.40;;;0.60;99.90;;;-1.37;100.00;100045.75;2568345;30;137491;-40
2021/12/09 08:03:33;;;;;;;8.48;3.75;;;0.60;99.90;;;-1.29;100.00;100050.34;2566500;30;139129;-40
2021/12/09 08:06:00;;;;;;;9.52;4.30;;;0.60;99.90;;;-1.24;100.00;100037.31;2566677;30;138723;-39
2021/12/09 08:08:28;;;;;;;12.55;4.53;;;0.70;99.90;;;-1.15;100.00;100046.28;2567968;30;137390;-40
2021/12/09 08:10:56;;;;;;;9.23;4.57;;;0.70;99.90;;;-1.10;100.00;100048.50;2568377;30;137566;-40
2021/12/09 08:13:23;;;;;;;13.00;3.83;;;0.80;99.90;;;-1.10;100.00;100040.47;2568522;30;138520;-40
2021/12/09 08:15:53;;;;;;;11.32;4.55;;;0.80;99.90;;;-1.08;100.00;100047.31;2567394;30;138124;-40
2021/12/09 08:20:55;;;;;;;8.70;3.90;;;0.90;99.90;;;-0.97;100.00;100048.91;2568825;30;137440;-40
2021/12/09 08:23:24;;;;;;;10.60;4.20;;;0.90;99.90;;;-0.92;100.00;100048.44;2567855;30;139116;-40
2021/12/09 08:25:54;;;;;;;12.80;4.53;;;0.90;99.90;;;-0.90;100.00;100054.50;2568435;30;136730;-40
2021/12/09 08:28:22;;;;;;;17.90;4.70;;;0.90;99.90;;;-0.81;100.00;100053.53;2569312;30;138239;-40
2021/12/09 08:30:51;;;;;;;13.25;4.10;;;1.00;99.90;;;-0.77;100.00;100065.66;2567835;30;136674;-40
2021/12/09 08:33:25;;;;;;;7.30;3.60;;;1.10;99.90;;;-0.67;100.00;100064.69;2567243;30;137887;-40
2021/12/09 08:35:54;;;;;;;9.85;3.88;;;1.10;99.90;;;-0.54;100.00;100057.06;2568768;30;137512;-40
2021/12/09 08:38:24;;;;;;;7.95;3.78;;;1.20;99.90;;;-0.56;100.00;100042.16;2567479;30;138558;-40
2021/12/09 08:40:54;;;;;;;9.68;3.55;;;1.30;99.90;;;-0.42;100.00;100060.31;2568479;30;138167;-40
2021/12/09 08:43:22;;;;;;;11.75;4.35;;;1.40;99.90;;;-0.31;100.00;100053.81;2568186;30;138539;-40
2021/12/09 08:45:53;;;;;;;8.73;3.53;;;1.50;99.90;;;-0.25;100.00;100063.94;2567219;30;137570;-40
2021/12/09 08:48:23;;;;;;;8.82;3.80;;;1.50;99.90;;;-0.17;100.00;100074.69;2567481;30;137657;-40
2021/12/09 08:50:52;;;;;;;11.48;3.75;;;1.60;99.90;;;-0.06;100.00;100072.72;2567257;30;136703;-40
2021/12/09 08:53:24;;;;;;;11.35;3.58;;;1.70;99.90;;;0.09;100.00;100081.84;2565743;30;139372;-40
2021/12/09 08:55:54;;;;;;;9.93;3.67;;;1.80;99.90;;;0.24;100.00;100075.81;2568799;30;136885;-40
2021/12/09 08:58:23;;;;;;;12.50;3.50;;;2.00;99.90;;;0.32;100.00;100075.88;2567890;30;137397;-40
2021/12/09 09:00:53;;;;;;;11.77;3.70;;;2.00;99.90;;;0.35;100.00;100067.50;2566463;30;137268;-40
2021/12/09 09:03:21;;;;;;;10.88;3.53;;;2.10;99.90;;;0.47;100.00;100075.22;2567873;30;137309;-40
2021/12/09 09:05:50;;;;;;;10.23;3.42;;;2.20;99.90;;;0.52;100.00;100075.56;2565359;30;137572;-40
2021/12/09 09:08:17;;;;;;;9.70;3.75;;;2.20;99.90;;;0.64;100.00;100081.44;2568147;30;138291;-40
2021/12/09 09:10:46;;;;;;;9.60;3.28;;;2.30;99.90;;;0.69;100.00;100077.28;2567032;30;137724;-40
2021/12/09 09:13:14;;;;;;;9.57;4.10;;;2.40;99.90;;;0.73;100.00;100080.47;2567707;30;138951;-40
2021/12/09 09:15:48;;;;;;;;;;;2.50;99.90;;;0.86;100.00;100094.22;2568221;30;137300;-40
2021/12/09 09:18:18;;;;;;;10.98;3.47;;;2.50;99.90;;;0.95;100.00;100087.03;2567597;30;138128;-40
2021/12/09 09:20:48;;;;;;;10.93;4.28;;;2.60;99.90;;;1.05;100.00;100092.22;2567860;30;137546;-40
2021/12/09 09:23:20;;;;;;;10.90;3.92;;;2.70;99.90;;;1.15;100.00;100097.44;2567972;30;138207;-40
2021/12/09 09:25:48;;;;;;;11.73;3.97;;;2.80;99.90;;;1.25;100.00;100094.59;2567632;30;137404;-40
2021/12/09 09:28:16;;;;;;;8.38;4.00;;;2.90;99.90;;;1.35;100.00;100091.72;2569602;30;138304;-37
2021/12/09 09:30:53;;;;;;;10.80;3.67;;;3.00;99.90;;;1.44;100.00;100091.50;2570257;30;137694;-37
2021/12/09 09:33:26;;;;;;;8.27;4.07;;;3.10;99.90;;;1.50;100.00;100106.13;2567491;30;137764;-37
2021/12/09 09:35:54;;;;;;;8.43;3.85;;;3.10;99.90;;;1.58;100.00;100098.03;2567366;30;137620;-37
2021/12/09 09:38:24;;;;;;;10.18;4.10;;;3.20;99.90;;;1.68;100.00;100097.84;2568204;30;138256;-38
2021/12/09 09:41:08;;;;;;;8.98;3.58;;;3.30;99.90;;;1.69;100.00;100101.41;2568830;30;137651;-37
2021/12/09 09:46:27;;;;;;;11.00;4.20;;;3.40;99.90;;;1.78;100.00;100104.91;2565951;30;137385;-38
2021/12/09 09:48:59;;;;;;;8.55;3.63;;;3.40;99.90;;;1.82;100.00;100107.06;2568011;30;138165;-37
2021/12/09 09:51:29;;;;;;;8.23;3.83;;;3.50;99.90;;;1.86;100.00;100108.41;2568061;30;138137;-37
2021/12/09 09:53:57;;;;;;;10.55;3.90;;;3.50;99.90;;;1.91;100.00;100107.06;2567031;30;138300;-38
2021/12/09 09:56:27;;;;;;;10.15;4.88;;;3.50;99.90;;;1.91;100.00;100115.13;2569681;30;138211;-37
2021/12/09 09:59:06;;;;;;;9.57;3.80;;;3.60;99.90;;;1.93;100.00;100111.22;2567470;30;139341;-38
2021/12/09 10:01:37;;;;;;;8.52;3.72;;;3.60;99.90;;;2.02;100.00;100117.44;2568201;30;137387;-37
2021/12/09 10:04:20;;;;;;;13.80;4.00;;;3.60;99.90;;;2.07;100.00;100117.75;2568545;30;137029;-37
2021/12/09 10:06:49;;;;;;;9.18;3.80;;;3.70;99.90;;;2.20;100.00;100110.97;2569509;30;137090;-38
2021/12/09 10:09:17;;;;;;;10.05;3.67;;;3.80;99.90;;;2.25;100.00;100108.59;2568680;30;138132;-38
2021/12/09 10:11:45;;;;;;;;;;;3.80;99.90;;;2.32;100.00;100106.06;2569199;30;138310;-37
2021/12/09 10:14:20;;;;;;;10.70;3.83;;;3.90;99.90;;;2.41;100.00;100102.28;2567763;30;137728;-37
2021/12/09 10:17:09;;;;;;;11.95;4.05;;;4.00;99.90;;;2.48;99.75;100097.03;2569403;30;136998;-37
2021/12/09 10:19:52;;;;;;;7.85;3.50;;;4.10;99.90;;;2.54;100.00;100088.25;2568863;30;139193;-38
2021/12/09 10:22:24;;;;;;;7.57;3.40;;;4.10;99.90;;;2.61;98.83;100091.91;2569462;30;138471;-37
2021/12/09 10:24:55;;;;;;;9.85;3.40;;;4.20;99.90;;;2.71;97.82;100092.53;2567238;30;138336;-37
2021/12/09 10:27:34;;;;;;;8.23;3.47;;;4.30;99.90;;;2.78;98.00;100092.63;2568226;30;136884;-37
2021/12/09 10:30:13;;;;;;;9.63;3.72;;;4.40;99.90;;;2.92;98.15;100087.47;2568561;30;138159;-37